createdAt,value
2023-04-06T00:02:12.966Z,101206.16
2023-04-06T00:04:41.048Z,101214.47
2023-04-06T00:07:09.189Z,101205.47
2023-04-06T00:09:37.216Z,101196.13
2023-04-06T00:12:05.234Z,101195.94
2023-04-06T00:14:33.188Z,101184.22
2023-04-06T00:17:01.201Z,101191.88
2023-04-06T00:19:29.152Z,101185.53
2023-04-06T00:21:57.185Z,101194.03
2023-04-06T00:24:25.202Z,101195.19
2023-04-06T00:26:53.314Z,101197.09
2023-04-06T00:29:21.283Z,101192.38
2023-04-06T00:31:49.318Z,101191.63
2023-04-06T00:34:17.377Z,101196.34
2023-04-06T00:36:45.550Z,101191.06
2023-04-06T00:39:13.497Z,101186.28
2023-04-06T00:41:50.835Z,101195.75
2023-04-06T00:44:20.122Z,101178.56
2023-04-06T00:46:48.336Z,101191.06
2023-04-06T00:49:16.578Z,101188.28
2023-04-06T00:51:44.681Z,101196.31
2023-04-06T00:54:12.887Z,101189.78
2023-04-06T00:56:42.748Z,101187.03
2023-04-06T00:59:12.991Z,101177.72
2023-04-06T01:01:41.990Z,101178.88
2023-04-06T01:04:25.455Z,101183.25
2023-04-06T01:06:55.221Z,101173.72
2023-04-06T01:09:31.805Z,101175.63
2023-04-06T01:12:04.794Z,101172.84
2023-04-06T01:14:35.886Z,101173.78
2023-04-06T01:17:04.202Z,101174.09
2023-04-06T01:19:34.782Z,101179.50
2023-04-06T01:22:02.909Z,101177.31
2023-04-06T01:24:34.250Z,101177.13
2023-04-06T01:27:31.480Z,101183.91
2023-04-06T01:30:14.422Z,101172.13
2023-04-06T01:33:08.693Z,101182.94
2023-04-06T01:35:56.773Z,101179.19
2023-04-06T01:38:24.866Z,101175.63
2023-04-06T01:40:53.268Z,101170.25
2023-04-06T01:43:24.178Z,101174.47
2023-04-06T01:46:03.789Z,101175.06
2023-04-06T01:48:36.345Z,101160.22
2023-04-06T01:51:13.317Z,101160.81
2023-04-06T01:53:50.758Z,101172.69
2023-04-06T01:56:21.507Z,101175.91
2023-04-06T01:59:01.125Z,101166.88
2023-04-06T02:01:36.948Z,101159.28
2023-04-06T02:04:05.117Z,101168.28
2023-04-06T02:06:33.192Z,101162.44
2023-04-06T02:09:03.241Z,101166.28
2023-04-06T02:11:31.567Z,101169.31
2023-04-06T02:14:01.630Z,101176.22
2023-04-06T02:16:32.806Z,101166.38
2023-04-06T02:19:00.736Z,101172.34
2023-04-06T02:21:28.698Z,101173.34
2023-04-06T02:23:56.987Z,101171.31
2023-04-06T02:26:25.250Z,101171.84
2023-04-06T02:28:53.207Z,101163.84
2023-04-06T02:31:21.930Z,101172.72
2023-04-06T02:33:51.001Z,101171.66
2023-04-06T02:36:19.117Z,101162.97
2023-04-06T02:38:47.207Z,101177.97
2023-04-06T02:41:15.205Z,101174.59
2023-04-06T02:43:43.297Z,101182.69
2023-04-06T02:46:18.637Z,101182.22
2023-04-06T02:48:46.778Z,101187.50
2023-04-06T02:51:16.202Z,101182.78
2023-04-06T02:53:49.291Z,101181.00
2023-04-06T02:56:17.608Z,101181.28
2023-04-06T02:58:50.159Z,101189.63
2023-04-06T03:01:18.962Z,101184.28
2023-04-06T03:03:47.848Z,101185.19
2023-04-06T03:06:23.235Z,101176.69
2023-04-06T03:08:55.813Z,101178.88
2023-04-06T03:11:23.907Z,101174.72
2023-04-06T03:13:54.097Z,101175.81
2023-04-06T03:16:22.334Z,101177.28
2023-04-06T03:18:50.601Z,101172.94
2023-04-06T03:21:18.637Z,101170.03
2023-04-06T03:23:52.476Z,101166.88
2023-04-06T03:26:20.613Z,101168.66
2023-04-06T03:28:48.543Z,101169.50
2023-04-06T03:31:17.959Z,101169.75
2023-04-06T03:34:00.660Z,101167.16
2023-04-06T03:36:36.323Z,101162.22
2023-04-06T03:39:06.327Z,101168.50
2023-04-06T03:41:37.781Z,101168.84
2023-04-06T03:44:33.127Z,101166.28
2023-04-06T03:47:01.181Z,101158.88
2023-04-06T03:49:29.210Z,101165.09
2023-04-06T03:51:58.731Z,101167.72
2023-04-06T03:54:26.702Z,101164.16
2023-04-06T03:56:54.704Z,101167.22
2023-04-06T03:59:22.769Z,101169.53
2023-04-06T04:01:54.764Z,101170.19
2023-04-06T04:04:22.970Z,101168.38
2023-04-06T04:06:51.139Z,101176.78
2023-04-06T04:09:19.105Z,101177.09
2023-04-06T04:11:47.029Z,101173.16
2023-04-06T04:14:15.030Z,101170.00
2023-04-06T04:16:43.205Z,101178.00
2023-04-06T04:19:11.301Z,101178.84
2023-04-06T04:21:47.328Z,101170.31
2023-04-06T04:24:19.659Z,101185.84
2023-04-06T04:26:47.661Z,101179.84
2023-04-06T04:29:16.629Z,101180.47
2023-04-06T04:31:44.884Z,101182.59
2023-04-06T04:34:18.052Z,101182.97
2023-04-06T04:36:46.195Z,101184.13
2023-04-06T04:39:21.542Z,101182.06
2023-04-06T04:41:57.942Z,101185.53
2023-04-06T04:44:26.378Z,101191.44
2023-04-06T04:46:54.430Z,101191.50
2023-04-06T04:49:28.232Z,101191.50
2023-04-06T04:51:57.303Z,101187.28
2023-04-06T04:54:32.593Z,101186.66
2023-04-06T04:57:01.206Z,101187.78
2023-04-06T04:59:57.330Z,101190.72
2023-04-06T05:02:26.579Z,101184.19
2023-04-06T05:05:05.606Z,101185.22
2023-04-06T05:07:34.125Z,101182.66
2023-04-06T05:10:03.821Z,101186.59
2023-04-06T05:12:39.186Z,101179.22
2023-04-06T05:15:10.225Z,101199.56
2023-04-06T05:17:39.687Z,101198.28
2023-04-06T05:20:09.916Z,101195.53
2023-04-06T05:22:45.431Z,101198.56
2023-04-06T05:25:15.072Z,101196.78
2023-04-06T05:27:43.486Z,101200.59
2023-04-06T05:30:30.529Z,101204.41
2023-04-06T05:33:00.730Z,101204.69
2023-04-06T05:35:35.947Z,101194.91
2023-04-06T05:38:11.440Z,101196.44
2023-04-06T05:40:42.296Z,101202.41
2023-04-06T05:43:14.728Z,101204.63
2023-04-06T05:45:46.904Z,101204.72
2023-04-06T05:48:15.028Z,101212.81
2023-04-06T05:50:43.086Z,101208.63
2023-04-06T05:53:14.662Z,101208.56
2023-04-06T05:55:47.075Z,101210.53
2023-04-06T05:58:19.716Z,101211.47
2023-04-06T06:00:49.181Z,101212.03
2023-04-06T06:03:18.921Z,101214.44
2023-04-06T06:05:52.785Z,101211.63
2023-04-06T06:08:28.542Z,101216.41
2023-04-06T06:10:57.924Z,101213.00
2023-04-06T06:13:26.786Z,101217.41
2023-04-06T06:15:55.147Z,101216.72
2023-04-06T06:18:24.324Z,101219.88
2023-04-06T06:20:55.342Z,101216.97
2023-04-06T06:23:23.463Z,101211.47
2023-04-06T06:25:51.390Z,101216.81
2023-04-06T06:28:20.941Z,101215.88
2023-04-06T06:30:49.437Z,101215.88
2023-04-06T06:33:22.016Z,101210.16
2023-04-06T06:35:53.447Z,101211.19
2023-04-06T06:38:23.608Z,101216.59
2023-04-06T06:40:52.711Z,101216.69
2023-04-06T06:43:21.763Z,101214.13
2023-04-06T06:46:00.143Z,101214.22
2023-04-06T06:48:28.278Z,101211.09
2023-04-06T06:50:56.463Z,101210.72
2023-04-06T06:53:24.989Z,101212.31
2023-04-06T06:55:53.029Z,101210.72
2023-04-06T06:58:21.470Z,101211.66
2023-04-06T07:00:50.188Z,101223.59
2023-04-06T07:03:18.458Z,101216.59
2023-04-06T07:05:51.370Z,101216.41
2023-04-06T07:08:19.387Z,101212.13
2023-04-06T07:10:47.375Z,101212.97
2023-04-06T07:13:21.966Z,101204.16
2023-04-06T07:15:52.028Z,101208.56
2023-04-06T07:18:20.987Z,101209.03
2023-04-06T07:20:49.167Z,101209.09
2023-04-06T07:23:18.151Z,101202.88
2023-04-06T07:25:46.821Z,101192.66
2023-04-06T07:28:14.842Z,101207.38
2023-04-06T07:30:43.533Z,101209.09
2023-04-06T07:33:13.521Z,101206.78
2023-04-06T07:35:43.316Z,101206.56
2023-04-06T07:38:12.462Z,101203.91
2023-04-06T07:40:41.794Z,101199.03
2023-04-06T07:43:09.763Z,101209.88
2023-04-06T07:45:38.035Z,101208.81
2023-04-06T07:48:06.549Z,101217.19
2023-04-06T07:50:35.996Z,101207.63
2023-04-06T07:53:04.611Z,101219.84
2023-04-06T07:55:32.661Z,101214.56
2023-04-06T07:58:00.841Z,101216.38
2023-04-06T08:00:28.903Z,101217.22
2023-04-06T08:02:57.237Z,101223.28
2023-04-06T08:05:25.280Z,101216.66
2023-04-06T08:07:53.314Z,101213.97
2023-04-06T08:10:21.327Z,101213.31
2023-04-06T08:12:49.345Z,101212.00
2023-04-06T08:15:19.600Z,101213.75
2023-04-06T08:17:47.765Z,101205.91
2023-04-06T08:20:15.851Z,101210.47
2023-04-06T08:22:43.760Z,101205.22
2023-04-06T08:25:11.874Z,101206.66
2023-04-06T08:27:39.856Z,101206.59
2023-04-06T08:30:08.094Z,101209.03
2023-04-06T08:32:36.455Z,101207.03
2023-04-06T08:35:04.632Z,101207.09
2023-04-06T08:37:32.703Z,101208.13
2023-04-06T08:40:01.175Z,101210.28
2023-04-06T08:42:33.140Z,101211.91
2023-04-06T08:45:02.262Z,101195.78
2023-04-06T08:47:30.325Z,101210.72
2023-04-06T08:50:00.728Z,101206.56
2023-04-06T08:52:30.850Z,101197.94
2023-04-06T08:54:58.814Z,101193.91
2023-04-06T08:57:27.737Z,101194.72
2023-04-06T08:59:57.727Z,101185.34
2023-04-06T09:02:26.938Z,101193.25
2023-04-06T09:04:55.785Z,101187.16
2023-04-06T09:07:25.087Z,101182.50
2023-04-06T09:09:53.135Z,101162.88
2023-04-06T09:12:28.978Z,101178.56
2023-04-06T09:14:57.973Z,101171.66
2023-04-06T09:17:31.383Z,101173.88
2023-04-06T09:20:00.600Z,101172.56
2023-04-06T09:22:40.434Z,101173.50
2023-04-06T09:25:12.033Z,101166.31
2023-04-06T09:27:40.231Z,101180.81
2023-04-06T09:30:15.316Z,101180.19
2023-04-06T09:32:53.236Z,101167.97
2023-04-06T09:35:22.354Z,101169.03
2023-04-06T09:37:52.905Z,101168.13
2023-04-06T09:40:22.300Z,101173.97
2023-04-06T09:42:54.937Z,101172.16
2023-04-06T09:45:22.989Z,101176.38
2023-04-06T09:47:52.861Z,101159.06
2023-04-06T09:50:22.473Z,101146.31
2023-04-06T09:52:52.469Z,101141.97
2023-04-06T09:55:44.212Z,101154.53
2023-04-06T09:58:19.759Z,101130.72
2023-04-06T10:01:13.551Z,101148.97
2023-04-06T10:03:54.226Z,101143.66
2023-04-06T10:06:24.907Z,101127.44
2023-04-06T10:08:56.538Z,101122.22
2023-04-06T10:11:24.748Z,101118.16
2023-04-06T10:13:52.826Z,101119.97
2023-04-06T10:16:21.177Z,101108.28
2023-04-06T10:18:55.952Z,101116.03
2023-04-06T10:21:27.937Z,101111.91
2023-04-06T10:24:00.993Z,101108.03
2023-04-06T10:26:29.120Z,101107.34
2023-04-06T10:29:04.977Z,101107.63
2023-04-06T10:31:33.421Z,101095.38
2023-04-06T10:34:03.210Z,101104.81
2023-04-06T10:36:35.681Z,101092.75
2023-04-06T10:39:06.017Z,101077.91
2023-04-06T10:41:42.980Z,101082.41
2023-04-06T10:44:22.494Z,101080.81
